Portada
METAR-TAF:

METAR-TAF

Aeropuertos :

Aeropuerto Internacional Diori Hamani

Niamey, Níger

latitud: 13-29N, longitud: 002-10E, altitud: 223 m

Observación

El informe se hizo hace 10 horas y 49 minutos, a las 05:00 UTC
Viento 4 kt del oeste
Temperatura 24°C
Humedad 94%
Presión 1010 hPa
Visibilidad 10 km o más
sin nubes por debajo de 1500 m y sin presencia de cumulonimbus.

METAR: DRRN 210500Z 28004KT CAVOK 24/23 Q1010 NOSIG

Hora: 16:49 (15:49 UTC)

Pronóstico

El informe se hizo hace 10 horas y 49 minutos, a las 05:00 UTC
Pronóstico válido del 21 a las 06 UTC al 22 a las 12 UTC
Viento 8 kt del oeste
Visibilidad 10 km o más
Nubes dispersas a una altura de 2000 ft
Probabilidad 30% :
Temporalmente
del 21 a las 14 UTC al 21 a las 20 UTC
Visibilidad: 4000 m
Cielo nuboso a una altura de 2000 ft
Escasas nubes a una altura de 2600 ft, Cumulonimbus.

TAF: DRRN 210500Z 2106/2212 26008KT 9999 SCT020 PROB30 TEMPO 2114/2120 4000 TSSHRA BKN020 FEW026CB

Observaciones y pronósticos meteorológicos de más de 4000 aeropuertos (mensajes METAR y TAF).

Los puntos amarillos y rojos representan las estaciones disponibles.

Ponga el ratón en el punto deseado para ver el nombre de la estación.

Haga clic para ver las observaciones y los pronósticos meteorológicos.

Para cambiar el mapa : haga clic en los botones verdes con una cruz de color negro para hacer un zoom, en el botón verde con un guión para alejar o en las flechas verdes para mapas adyacentes.


METAR-TAF: